sensor_id;sensor_type;location;lat;lon;timestamp;temperature;humidity
49224;DHT22;35050;51.316;5.994;2023-07-29T00:00:43;20.40;99.90
49224;DHT22;35050;51.316;5.994;2023-07-29T00:03:09;20.30;99.90
49224;DHT22;35050;51.316;5.994;2023-07-29T00:05:36;20.30;99.90
49224;DHT22;35050;51.316;5.994;2023-07-29T00:08:02;20.30;99.90
49224;DHT22;35050;51.316;5.994;2023-07-29T00:10:27;20.30;99.90
49224;DHT22;35050;51.316;5.994;2023-07-29T00:12:53;20.30;99.90
49224;DHT22;35050;51.316;5.994;2023-07-29T00:15:18;20.40;99.90
49224;DHT22;35050;51.316;5.994;2023-07-29T00:17:44;20.30;99.90
49224;DHT22;35050;51.316;5.994;2023-07-29T00:20:10;20.30;99.90
49224;DHT22;35050;51.316;5.994;2023-07-29T00:22:35;20.30;99.90
49224;DHT22;35050;51.316;5.994;2023-07-29T00:25:01;20.30;99.90
49224;DHT22;35050;51.316;5.994;2023-07-29T00:27:27;20.30;99.90
49224;DHT22;35050;51.316;5.994;2023-07-29T00:29:52;20.40;99.90
49224;DHT22;35050;51.316;5.994;2023-07-29T00:32:18;20.20;99.90
49224;DHT22;35050;51.316;5.994;2023-07-29T00:34:44;20.30;99.90
49224;DHT22;35050;51.316;5.994;2023-07-29T00:37:09;20.30;99.90
49224;DHT22;35050;51.316;5.994;2023-07-29T00:39:36;20.30;99.90
49224;DHT22;35050;51.316;5.994;2023-07-29T00:42:05;20.40;99.90
49224;DHT22;35050;51.316;5.994;2023-07-29T00:44:31;20.30;99.90
49224;DHT22;35050;51.316;5.994;2023-07-29T00:47:02;20.20;99.90
49224;DHT22;35050;51.316;5.994;2023-07-29T00:49:28;20.30;99.90
49224;DHT22;35050;51.316;5.994;2023-07-29T00:51:54;20.30;99.90
49224;DHT22;35050;51.316;5.994;2023-07-29T00:54:20;20.30;99.90
49224;DHT22;35050;51.316;5.994;2023-07-29T00:56:45;20.40;99.90
49224;DHT22;35050;51.316;5.994;2023-07-29T00:59:11;20.40;99.90
49224;DHT22;35050;51.316;5.994;2023-07-29T01:01:37;20.40;99.90
49224;DHT22;35050;51.316;5.994;2023-07-29T01:04:02;20.30;99.90
49224;DHT22;35050;51.316;5.994;2023-07-29T01:09:39;20.30;99.90
49224;DHT22;35050;51.316;5.994;2023-07-29T01:12:20;20.20;99.90
49224;DHT22;35050;51.316;5.994;2023-07-29T01:15:00;20.20;99.90
49224;DHT22;35050;51.316;5.994;2023-07-29T01:17:33;20.20;99.90
49224;DHT22;35050;51.316;5.994;2023-07-29T01:20:07;20.30;99.90
49224;DHT22;35050;51.316;5.994;2023-07-29T01:22:34;20.30;99.90
49224;DHT22;35050;51.316;5.994;2023-07-29T01:25:00;20.30;99.90
49224;DHT22;35050;51.316;5.994;2023-07-29T01:27:26;20.40;99.90
49224;DHT22;35050;51.316;5.994;2023-07-29T01:29:53;20.20;99.90
49224;DHT22;35050;51.316;5.994;2023-07-29T01:35:25;20.30;99.90
49224;DHT22;35050;51.316;5.994;2023-07-29T01:38:05;20.20;99.90
49224;DHT22;35050;51.316;5.994;2023-07-29T01:40:32;20.20;99.90
49224;DHT22;35050;51.316;5.994;2023-07-29T01:42:58;20.20;99.90
49224;DHT22;35050;51.316;5.994;2023-07-29T01:45:24;20.20;99.90
49224;DHT22;35050;51.316;5.994;2023-07-29T01:47:51;20.30;99.90
49224;DHT22;35050;51.316;5.994;2023-07-29T01:50:17;20.30;99.90
49224;DHT22;35050;51.316;5.994;2023-07-29T01:52:42;20.30;99.90
49224;DHT22;35050;51.316;5.994;2023-07-29T01:55:08;20.20;99.90
49224;DHT22;35050;51.316;5.994;2023-07-29T01:57:34;20.20;99.90
49224;DHT22;35050;51.316;5.994;2023-07-29T01:59:59;20.20;99.90
49224;DHT22;35050;51.316;5.994;2023-07-29T02:02:25;20.30;99.90
49224;DHT22;35050;51.316;5.994;2023-07-29T02:04:51;20.20;99.90
49224;DHT22;35050;51.316;5.994;2023-07-29T02:07:21;20.10;99.90
49224;DHT22;35050;51.316;5.994;2023-07-29T02:09:46;20.20;99.90
49224;DHT22;35050;51.316;5.994;2023-07-29T02:12:12;20.10;99.90
49224;DHT22;35050;51.316;5.994;2023-07-29T02:14:38;20.20;99.90
49224;DHT22;35050;51.316;5.994;2023-07-29T02:17:04;19.90;99.90
49224;DHT22;35050;51.316;5.994;2023-07-29T02:19:29;20.00;99.90
49224;DHT22;35050;51.316;5.994;2023-07-29T02:21:55;20.10;99.90
49224;DHT22;35050;51.316;5.994;2023-07-29T02:24:21;20.00;99.90
49224;DHT22;35050;51.316;5.994;2023-07-29T02:26:46;20.00;99.90
49224;DHT22;35050;51.316;5.994;2023-07-29T02:29:12;19.90;99.90
49224;DHT22;35050;51.316;5.994;2023-07-29T02:31:37;19.90;99.90
49224;DHT22;35050;51.316;5.994;2023-07-29T02:34:04;19.90;99.90
49224;DHT22;35050;51.316;5.994;2023-07-29T02:36:29;19.90;99.90
49224;DHT22;35050;51.316;5.994;2023-07-29T02:38:55;19.70;99.90
49224;DHT22;35050;51.316;5.994;2023-07-29T02:41:21;19.80;99.90
49224;DHT22;35050;51.316;5.994;2023-07-29T02:43:50;19.80;99.90
49224;DHT22;35050;51.316;5.994;2023-07-29T02:46:16;19.80;99.90
49224;DHT22;35050;51.316;5.994;2023-07-29T02:48:42;19.80;99.90
49224;DHT22;35050;51.316;5.994;2023-07-29T02:51:08;19.70;99.90
49224;DHT22;35050;51.316;5.994;2023-07-29T02:53:34;19.80;99.90
49224;DHT22;35050;51.316;5.994;2023-07-29T02:56:02;19.80;99.90
49224;DHT22;35050;51.316;5.994;2023-07-29T02:58:28;19.60;99.90
49224;DHT22;35050;51.316;5.994;2023-07-29T03:01:01;19.70;99.90
49224;DHT22;35050;51.316;5.994;2023-07-29T03:03:27;19.70;99.90
49224;DHT22;35050;51.316;5.994;2023-07-29T03:06:07;19.60;99.90
49224;DHT22;35050;51.316;5.994;2023-07-29T03:08:33;19.60;99.90
49224;DHT22;35050;51.316;5.994;2023-07-29T03:11:04;19.50;99.90
49224;DHT22;35050;51.316;5.994;2023-07-29T03:13:30;19.40;99.90
49224;DHT22;35050;51.316;5.994;2023-07-29T03:16:08;19.50;99.90
49224;DHT22;35050;51.316;5.994;2023-07-29T03:18:34;19.50;99.90
49224;DHT22;35050;51.316;5.994;2023-07-29T03:20:59;19.40;99.90
49224;DHT22;35050;51.316;5.994;2023-07-29T03:23:25;19.40;99.90
49224;DHT22;35050;51.316;5.994;2023-07-29T03:25:51;19.40;99.90
49224;DHT22;35050;51.316;5.994;2023-07-29T03:28:18;19.30;99.90
49224;DHT22;35050;51.316;5.994;2023-07-29T03:30:44;19.30;99.90
49224;DHT22;35050;51.316;5.994;2023-07-29T03:33:09;19.20;99.90
49224;DHT22;35050;51.316;5.994;2023-07-29T03:35:35;19.20;99.90
49224;DHT22;35050;51.316;5.994;2023-07-29T03:38:01;19.20;99.90
49224;DHT22;35050;51.316;5.994;2023-07-29T03:40:26;19.20;99.90
49224;DHT22;35050;51.316;5.994;2023-07-29T03:42:52;19.20;99.90
49224;DHT22;35050;51.316;5.994;2023-07-29T03:45:17;19.20;99.90
49224;DHT22;35050;51.316;5.994;2023-07-29T03:47:43;19.10;99.90
49224;DHT22;35050;51.316;5.994;2023-07-29T03:50:09;19.00;99.90
49224;DHT22;35050;51.316;5.994;2023-07-29T03:52:34;18.90;99.90
49224;DHT22;35050;51.316;5.994;2023-07-29T03:55:00;19.00;99.90
49224;DHT22;35050;51.316;5.994;2023-07-29T03:57:26;18.80;99.90
49224;DHT22;35050;51.316;5.994;2023-07-29T03:59:51;18.90;99.90
49224;DHT22;35050;51.316;5.994;2023-07-29T04:02:17;18.80;99.90
49224;DHT22;35050;51.316;5.994;2023-07-29T04:04:43;18.80;99.90
49224;DHT22;35050;51.316;5.994;2023-07-29T04:07:12;18.80;99.90
49224;DHT22;35050;51.316;5.994;2023-07-29T04:09:38;18.80;99.90
49224;DHT22;35050;51.316;5.994;2023-07-29T04:12:04;18.70;99.90
49224;DHT22;35050;51.316;5.994;2023-07-29T04:14:30;18.70;99.90
49224;DHT22;35050;51.316;5.994;2023-07-29T04:16:55;18.70;99.90
49224;DHT22;35050;51.316;5.994;2023-07-29T04:19:21;18.60;99.90
49224;DHT22;35050;51.316;5.994;2023-07-29T04:21:47;18.70;99.90
49224;DHT22;35050;51.316;5.994;2023-07-29T04:24:13;18.80;99.90
49224;DHT22;35050;51.316;5.994;2023-07-29T04:26:38;18.70;99.90
49224;DHT22;35050;51.316;5.994;2023-07-29T04:29:04;18.70;99.90
49224;DHT22;35050;51.316;5.994;2023-07-29T04:31:30;18.70;99.90
49224;DHT22;35050;51.316;5.994;2023-07-29T04:33:56;18.70;99.90
49224;DHT22;35050;51.316;5.994;2023-07-29T04:36:21;18.80;99.90
49224;DHT22;35050;51.316;5.994;2023-07-29T04:38:47;18.80;99.90
49224;DHT22;35050;51.316;5.994;2023-07-29T04:41:12;18.80;99.90
49224;DHT22;35050;51.316;5.994;2023-07-29T04:43:38;18.90;99.90
49224;DHT22;35050;51.316;5.994;2023-07-29T04:46:06;18.80;99.90
49224;DHT22;35050;51.316;5.994;2023-07-29T04:48:33;18.90;99.90
49224;DHT22;35050;51.316;5.994;2023-07-29T04:50:58;18.80;99.90
49224;DHT22;35050;51.316;5.994;2023-07-29T04:53:24;18.80;99.90
49224;DHT22;35050;51.316;5.994;2023-07-29T04:55:50;18.70;99.90
49224;DHT22;35050;51.316;5.994;2023-07-29T04:58:15;18.60;99.90
49224;DHT22;35050;51.316;5.994;2023-07-29T05:00:41;18.70;99.90
49224;DHT22;35050;51.316;5.994;2023-07-29T05:03:07;18.50;99.90
49224;DHT22;35050;51.316;5.994;2023-07-29T05:05:32;18.60;99.90
49224;DHT22;35050;51.316;5.994;2023-07-29T05:07:58;18.60;99.90
49224;DHT22;35050;51.316;5.994;2023-07-29T05:10:23;18.50;99.90
49224;DHT22;35050;51.316;5.994;2023-07-29T05:12:49;18.60;99.90
49224;DHT22;35050;51.316;5.994;2023-07-29T05:15:15;18.60;99.90
49224;DHT22;35050;51.316;5.994;2023-07-29T05:17:40;18.60;99.90
49224;DHT22;35050;51.316;5.994;2023-07-29T05:20:07;18.60;99.90
49224;DHT22;35050;51.316;5.994;2023-07-29T05:22:32;18.40;99.90
49224;DHT22;35050;51.316;5.994;2023-07-29T05:24:58;18.50;99.90
49224;DHT22;35050;51.316;5.994;2023-07-29T05:27:23;18.60;99.90
49224;DHT22;35050;51.316;5.994;2023-07-29T05:29:49;18.50;99.90
49224;DHT22;35050;51.316;5.994;2023-07-29T05:32:15;18.50;99.90
49224;DHT22;35050;51.316;5.994;2023-07-29T05:34:40;18.60;99.90
49224;DHT22;35050;51.316;5.994;2023-07-29T05:37:06;18.60;99.90
49224;DHT22;35050;51.316;5.994;2023-07-29T05:39:31;18.40;99.90
49224;DHT22;35050;51.316;5.994;2023-07-29T05:41:58;18.40;99.90
49224;DHT22;35050;51.316;5.994;2023-07-29T05:44:24;18.40;99.90
49224;DHT22;35050;51.316;5.994;2023-07-29T05:46:49;18.40;99.90
49224;DHT22;35050;51.316;5.994;2023-07-29T05:49:15;18.40;99.90
49224;DHT22;35050;51.316;5.994;2023-07-29T05:51:41;18.40;99.90
49224;DHT22;35050;51.316;5.994;2023-07-29T05:54:06;18.40;99.90
49224;DHT22;35050;51.316;5.994;2023-07-29T05:56:32;18.30;99.90
49224;DHT22;35050;51.316;5.994;2023-07-29T05:58:57;18.40;99.90
49224;DHT22;35050;51.316;5.994;2023-07-29T06:01:23;18.40;99.90
49224;DHT22;35050;51.316;5.994;2023-07-29T06:03:49;18.50;99.90
49224;DHT22;35050;51.316;5.994;2023-07-29T06:06:15;18.40;99.90
49224;DHT22;35050;51.316;5.994;2023-07-29T06:08:40;18.50;99.90
49224;DHT22;35050;51.316;5.994;2023-07-29T06:11:06;18.60;99.90
49224;DHT22;35050;51.316;5.994;2023-07-29T06:13:32;18.60;99.90
49224;DHT22;35050;51.316;5.994;2023-07-29T06:15:58;18.60;99.90
49224;DHT22;35050;51.316;5.994;2023-07-29T06:18:24;18.80;99.90
49224;DHT22;35050;51.316;5.994;2023-07-29T06:20:50;18.90;99.90
49224;DHT22;35050;51.316;5.994;2023-07-29T06:23:16;18.80;99.90
49224;DHT22;35050;51.316;5.994;2023-07-29T06:25:41;18.90;99.90
49224;DHT22;35050;51.316;5.994;2023-07-29T06:28:08;18.80;99.90
49224;DHT22;35050;51.316;5.994;2023-07-29T06:30:34;18.90;99.90
49224;DHT22;35050;51.316;5.994;2023-07-29T06:32:59;18.80;99.90
49224;DHT22;35050;51.316;5.994;2023-07-29T06:35:25;18.80;99.90
49224;DHT22;35050;51.316;5.994;2023-07-29T06:37:50;18.80;99.90
49224;DHT22;35050;51.316;5.994;2023-07-29T06:40:16;19.00;99.90
49224;DHT22;35050;51.316;5.994;2023-07-29T06:42:42;19.00;99.90
49224;DHT22;35050;51.316;5.994;2023-07-29T06:45:08;18.80;99.90
49224;DHT22;35050;51.316;5.994;2023-07-29T06:47:33;19.00;99.90
49224;DHT22;35050;51.316;5.994;2023-07-29T06:49:59;18.90;99.90
49224;DHT22;35050;51.316;5.994;2023-07-29T06:52:25;19.00;99.90
49224;DHT22;35050;51.316;5.994;2023-07-29T06:54:50;19.00;99.90
49224;DHT22;35050;51.316;5.994;2023-07-29T06:57:16;19.20;99.90
49224;DHT22;35050;51.316;5.994;2023-07-29T06:59:41;19.40;99.90
49224;DHT22;35050;51.316;5.994;2023-07-29T07:02:07;19.40;99.90
49224;DHT22;35050;51.316;5.994;2023-07-29T07:04:33;19.60;99.90
49224;DHT22;35050;51.316;5.994;2023-07-29T07:06:58;19.70;99.90
49224;DHT22;35050;51.316;5.994;2023-07-29T07:09:24;19.80;99.90
49224;DHT22;35050;51.316;5.994;2023-07-29T07:11:50;19.90;99.90
49224;DHT22;35050;51.316;5.994;2023-07-29T07:14:15;20.00;99.90
49224;DHT22;35050;51.316;5.994;2023-07-29T07:16:41;20.10;99.90
49224;DHT22;35050;51.316;5.994;2023-07-29T07:19:06;20.20;99.90
49224;DHT22;35050;51.316;5.994;2023-07-29T07:21:32;20.20;99.90
49224;DHT22;35050;51.316;5.994;2023-07-29T07:23:58;20.30;99.90
49224;DHT22;35050;51.316;5.994;2023-07-29T07:26:23;20.40;99.90
49224;DHT22;35050;51.316;5.994;2023-07-29T07:28:49;20.60;99.90
49224;DHT22;35050;51.316;5.994;2023-07-29T07:31:17;20.50;99.90
49224;DHT22;35050;51.316;5.994;2023-07-29T07:33:42;20.60;99.90
49224;DHT22;35050;51.316;5.994;2023-07-29T07:36:08;20.80;99.90
49224;DHT22;35050;51.316;5.994;2023-07-29T07:38:33;21.20;99.90
49224;DHT22;35050;51.316;5.994;2023-07-29T07:40:59;21.10;99.90
49224;DHT22;35050;51.316;5.994;2023-07-29T07:43:25;21.10;99.90
49224;DHT22;35050;51.316;5.994;2023-07-29T07:45:56;21.20;99.90
49224;DHT22;35050;51.316;5.994;2023-07-29T07:48:22;21.30;99.90
49224;DHT22;35050;51.316;5.994;2023-07-29T07:50:48;21.30;99.90
49224;DHT22;35050;51.316;5.994;2023-07-29T07:53:13;21.30;99.90
49224;DHT22;35050;51.316;5.994;2023-07-29T07:55:39;21.30;99.90
49224;DHT22;35050;51.316;5.994;2023-07-29T07:58:05;21.30;99.90
49224;DHT22;35050;51.316;5.994;2023-07-29T08:00:30;21.10;99.90
49224;DHT22;35050;51.316;5.994;2023-07-29T08:02:56;21.40;99.90
49224;DHT22;35050;51.316;5.994;2023-07-29T08:05:21;21.50;99.90
49224;DHT22;35050;51.316;5.994;2023-07-29T08:07:47;21.50;99.90
49224;DHT22;35050;51.316;5.994;2023-07-29T08:10:13;21.40;99.90
49224;DHT22;35050;51.316;5.994;2023-07-29T08:12:38;21.20;99.90
49224;DHT22;35050;51.316;5.994;2023-07-29T08:15:04;21.50;99.90
49224;DHT22;35050;51.316;5.994;2023-07-29T08:17:30;21.60;99.90
49224;DHT22;35050;51.316;5.994;2023-07-29T08:19:56;21.60;99.90
49224;DHT22;35050;51.316;5.994;2023-07-29T08:22:21;21.60;99.90
49224;DHT22;35050;51.316;5.994;2023-07-29T08:24:47;21.50;99.90
49224;DHT22;35050;51.316;5.994;2023-07-29T08:27:12;21.50;99.90
49224;DHT22;35050;51.316;5.994;2023-07-29T08:29:39;21.40;99.90
49224;DHT22;35050;51.316;5.994;2023-07-29T08:32:04;21.60;99.90
49224;DHT22;35050;51.316;5.994;2023-07-29T08:34:30;21.50;99.90
49224;DHT22;35050;51.316;5.994;2023-07-29T08:36:56;21.60;99.90
49224;DHT22;35050;51.316;5.994;2023-07-29T08:39:21;21.60;99.90
49224;DHT22;35050;51.316;5.994;2023-07-29T08:41:56;21.50;99.90
49224;DHT22;35050;51.316;5.994;2023-07-29T08:44:26;21.70;99.90
49224;DHT22;35050;51.316;5.994;2023-07-29T08:46:52;21.70;99.90
49224;DHT22;35050;51.316;5.994;2023-07-29T08:49:19;21.60;99.90
49224;DHT22;35050;51.316;5.994;2023-07-29T08:51:49;21.70;99.90
49224;DHT22;35050;51.316;5.994;2023-07-29T08:54:15;22.00;99.90
49224;DHT22;35050;51.316;5.994;2023-07-29T08:56:42;21.90;99.90
49224;DHT22;35050;51.316;5.994;2023-07-29T08:59:08;21.90;99.90
49224;DHT22;35050;51.316;5.994;2023-07-29T09:01:34;21.70;99.90
49224;DHT22;35050;51.316;5.994;2023-07-29T09:04:00;21.70;99.90
49224;DHT22;35050;51.316;5.994;2023-07-29T09:06:26;21.70;99.90
49224;DHT22;35050;51.316;5.994;2023-07-29T09:08:53;21.80;99.90
49224;DHT22;35050;51.316;5.994;2023-07-29T09:11:20;21.80;99.90
49224;DHT22;35050;51.316;5.994;2023-07-29T09:13:46;21.80;99.90
49224;DHT22;35050;51.316;5.994;2023-07-29T09:16:12;21.90;99.90
49224;DHT22;35050;51.316;5.994;2023-07-29T09:18:38;22.10;99.90
49224;DHT22;35050;51.316;5.994;2023-07-29T09:21:04;22.40;99.90
49224;DHT22;35050;51.316;5.994;2023-07-29T09:23:39;22.60;99.90
49224;DHT22;35050;51.316;5.994;2023-07-29T09:26:06;22.50;99.90
49224;DHT22;35050;51.316;5.994;2023-07-29T09:28:34;22.60;99.90
49224;DHT22;35050;51.316;5.994;2023-07-29T09:31:00;22.60;99.90
49224;DHT22;35050;51.316;5.994;2023-07-29T09:33:26;22.50;99.90
49224;DHT22;35050;51.316;5.994;2023-07-29T09:35:52;22.70;99.90
49224;DHT22;35050;51.316;5.994;2023-07-29T09:38:18;22.80;99.90
49224;DHT22;35050;51.316;5.994;2023-07-29T09:40:43;23.00;99.90
49224;DHT22;35050;51.316;5.994;2023-07-29T09:43:12;22.80;99.90
49224;DHT22;35050;51.316;5.994;2023-07-29T09:45:38;23.30;99.90
49224;DHT22;35050;51.316;5.994;2023-07-29T09:48:04;23.90;99.90
49224;DHT22;35050;51.316;5.994;2023-07-29T09:50:34;23.70;99.90
49224;DHT22;35050;51.316;5.994;2023-07-29T09:53:02;24.20;99.90
49224;DHT22;35050;51.316;5.994;2023-07-29T09:55:28;23.90;99.90
49224;DHT22;35050;51.316;5.994;2023-07-29T09:57:59;23.50;99.90
49224;DHT22;35050;51.316;5.994;2023-07-29T10:00:32;23.40;99.90
49224;DHT22;35050;51.316;5.994;2023-07-29T10:02:58;23.20;99.90
49224;DHT22;35050;51.316;5.994;2023-07-29T10:05:28;23.30;99.90
49224;DHT22;35050;51.316;5.994;2023-07-29T10:07:55;23.30;99.90
49224;DHT22;35050;51.316;5.994;2023-07-29T10:10:21;23.40;99.90
49224;DHT22;35050;51.316;5.994;2023-07-29T10:12:47;23.40;99.90
49224;DHT22;35050;51.316;5.994;2023-07-29T10:15:13;23.00;99.90
49224;DHT22;35050;51.316;5.994;2023-07-29T10:17:39;22.80;99.90
49224;DHT22;35050;51.316;5.994;2023-07-29T10:20:07;22.90;99.90
49224;DHT22;35050;51.316;5.994;2023-07-29T10:22:36;23.10;99.90
49224;DHT22;35050;51.316;5.994;2023-07-29T10:25:23;23.40;99.90
49224;DHT22;35050;51.316;5.994;2023-07-29T10:27:56;23.90;99.90
49224;DHT22;35050;51.316;5.994;2023-07-29T10:30:28;24.90;99.90
49224;DHT22;35050;51.316;5.994;2023-07-29T10:32:54;25.40;99.90
49224;DHT22;35050;51.316;5.994;2023-07-29T10:35:21;25.10;99.90
49224;DHT22;35050;51.316;5.994;2023-07-29T10:37:47;24.60;99.90
49224;DHT22;35050;51.316;5.994;2023-07-29T10:40:16;24.90;99.90
49224;DHT22;35050;51.316;5.994;2023-07-29T10:43:12;24.90;99.90
49224;DHT22;35050;51.316;5.994;2023-07-29T10:45:39;25.10;99.90
49224;DHT22;35050;51.316;5.994;2023-07-29T10:48:10;24.80;99.90
49224;DHT22;35050;51.316;5.994;2023-07-29T10:50:36;24.70;99.90
49224;DHT22;35050;51.316;5.994;2023-07-29T10:53:02;24.70;99.90
49224;DHT22;35050;51.316;5.994;2023-07-29T10:55:29;24.10;99.90
49224;DHT22;35050;51.316;5.994;2023-07-29T10:58:14;24.30;99.90
49224;DHT22;35050;51.316;5.994;2023-07-29T11:00:44;24.30;99.90
49224;DHT22;35050;51.316;5.994;2023-07-29T11:03:12;24.40;99.90
49224;DHT22;35050;51.316;5.994;2023-07-29T11:05:53;24.40;99.90
49224;DHT22;35050;51.316;5.994;2023-07-29T11:11:02;24.40;99.90
49224;DHT22;35050;51.316;5.994;2023-07-29T11:13:35;24.40;99.90
49224;DHT22;35050;51.316;5.994;2023-07-29T11:16:02;24.30;99.90
49224;DHT22;35050;51.316;5.994;2023-07-29T11:18:33;24.20;99.90
49224;DHT22;35050;51.316;5.994;2023-07-29T11:21:00;24.70;99.90
49224;DHT22;35050;51.316;5.994;2023-07-29T11:23:36;25.10;99.90
49224;DHT22;35050;51.316;5.994;2023-07-29T11:26:03;24.80;99.90
49224;DHT22;35050;51.316;5.994;2023-07-29T11:28:29;24.60;99.90
49224;DHT22;35050;51.316;5.994;2023-07-29T11:30:56;25.10;99.90
49224;DHT22;35050;51.316;5.994;2023-07-29T11:33:26;24.80;99.90
49224;DHT22;35050;51.316;5.994;2023-07-29T11:35:54;24.30;99.90
49224;DHT22;35050;51.316;5.994;2023-07-29T11:38:21;24.00;99.90
49224;DHT22;35050;51.316;5.994;2023-07-29T11:41:00;24.00;99.90
49224;DHT22;35050;51.316;5.994;2023-07-29T11:43:28;24.00;99.90
49224;DHT22;35050;51.316;5.994;2023-07-29T11:45:54;23.90;99.90
49224;DHT22;35050;51.316;5.994;2023-07-29T11:48:31;23.40;99.90
49224;DHT22;35050;51.316;5.994;2023-07-29T11:50:58;23.50;99.90
49224;DHT22;35050;51.316;5.994;2023-07-29T11:53:29;24.50;99.90
49224;DHT22;35050;51.316;5.994;2023-07-29T11:55:55;25.10;99.90
49224;DHT22;35050;51.316;5.994;2023-07-29T11:58:24;25.70;99.90
49224;DHT22;35050;51.316;5.994;2023-07-29T12:00:51;26.00;99.90
49224;DHT22;35050;51.316;5.994;2023-07-29T12:03:17;25.70;99.90
49224;DHT22;35050;51.316;5.994;2023-07-29T12:05:43;25.50;99.90
49224;DHT22;35050;51.316;5.994;2023-07-29T12:08:09;25.20;99.90
49224;DHT22;35050;51.316;5.994;2023-07-29T12:10:35;25.20;99.90
49224;DHT22;35050;51.316;5.994;2023-07-29T12:13:02;25.20;99.90
49224;DHT22;35050;51.316;5.994;2023-07-29T12:15:29;25.40;99.90
49224;DHT22;35050;51.316;5.994;2023-07-29T12:17:58;25.30;99.90
49224;DHT22;35050;51.316;5.994;2023-07-29T12:20:24;25.20;99.90
49224;DHT22;35050;51.316;5.994;2023-07-29T12:22:55;24.80;99.90
49224;DHT22;35050;51.316;5.994;2023-07-29T12:25:21;25.10;99.90
49224;DHT22;35050;51.316;5.994;2023-07-29T12:27:47;25.20;99.90
49224;DHT22;35050;51.316;5.994;2023-07-29T12:30:13;24.90;99.90
49224;DHT22;35050;51.316;5.994;2023-07-29T12:32:46;24.80;99.90
49224;DHT22;35050;51.316;5.994;2023-07-29T12:35:12;24.50;99.90
49224;DHT22;35050;51.316;5.994;2023-07-29T12:37:38;24.30;99.90
49224;DHT22;35050;51.316;5.994;2023-07-29T12:40:08;24.10;99.90
49224;DHT22;35050;51.316;5.994;2023-07-29T12:42:33;24.00;99.90
49224;DHT22;35050;51.316;5.994;2023-07-29T12:44:59;23.40;99.90
49224;DHT22;35050;51.316;5.994;2023-07-29T12:47:25;23.40;99.90
49224;DHT22;35050;51.316;5.994;2023-07-29T12:49:50;23.50;99.90
49224;DHT22;35050;51.316;5.994;2023-07-29T12:52:16;23.40;99.90
49224;DHT22;35050;51.316;5.994;2023-07-29T12:54:42;23.20;99.90
49224;DHT22;35050;51.316;5.994;2023-07-29T12:57:09;22.70;99.90
49224;DHT22;35050;51.316;5.994;2023-07-29T12:59:35;22.60;99.90
49224;DHT22;35050;51.316;5.994;2023-07-29T13:02:00;22.50;99.90
49224;DHT22;35050;51.316;5.994;2023-07-29T13:04:26;22.40;99.90
49224;DHT22;35050;51.316;5.994;2023-07-29T13:06:52;22.40;99.90
49224;DHT22;35050;51.316;5.994;2023-07-29T13:09:17;22.40;99.90
49224;DHT22;35050;51.316;5.994;2023-07-29T13:11:43;22.10;99.90
49224;DHT22;35050;51.316;5.994;2023-07-29T13:14:08;22.30;99.90
49224;DHT22;35050;51.316;5.994;2023-07-29T13:16:34;22.30;99.90
49224;DHT22;35050;51.316;5.994;2023-07-29T13:19:00;22.20;99.90
49224;DHT22;35050;51.316;5.994;2023-07-29T13:21:25;22.20;99.90
49224;DHT22;35050;51.316;5.994;2023-07-29T13:23:51;22.20;99.90
49224;DHT22;35050;51.316;5.994;2023-07-29T13:26:17;22.20;99.90
49224;DHT22;35050;51.316;5.994;2023-07-29T13:28:43;22.30;99.90
49224;DHT22;35050;51.316;5.994;2023-07-29T13:31:08;22.10;99.90
49224;DHT22;35050;51.316;5.994;2023-07-29T13:33:34;22.40;99.90
49224;DHT22;35050;51.316;5.994;2023-07-29T13:36:00;22.70;99.90
49224;DHT22;35050;51.316;5.994;2023-07-29T13:38:28;23.50;99.90
49224;DHT22;35050;51.316;5.994;2023-07-29T13:40:54;23.80;99.90
49224;DHT22;35050;51.316;5.994;2023-07-29T13:43:20;23.80;99.90
49224;DHT22;35050;51.316;5.994;2023-07-29T13:45:45;23.90;99.90
49224;DHT22;35050;51.316;5.994;2023-07-29T13:48:14;24.50;99.90
49224;DHT22;35050;51.316;5.994;2023-07-29T13:50:39;24.30;99.90
49224;DHT22;35050;51.316;5.994;2023-07-29T13:53:06;24.10;99.90
49224;DHT22;35050;51.316;5.994;2023-07-29T13:55:32;23.80;99.90
49224;DHT22;35050;51.316;5.994;2023-07-29T13:57:58;23.70;99.90
49224;DHT22;35050;51.316;5.994;2023-07-29T14:00:23;23.30;99.90
49224;DHT22;35050;51.316;5.994;2023-07-29T14:02:49;23.30;99.90
49224;DHT22;35050;51.316;5.994;2023-07-29T14:05:14;23.30;99.90
49224;DHT22;35050;51.316;5.994;2023-07-29T14:07:40;22.90;99.90
49224;DHT22;35050;51.316;5.994;2023-07-29T14:10:06;22.70;99.90
49224;DHT22;35050;51.316;5.994;2023-07-29T14:12:32;22.70;99.90
49224;DHT22;35050;51.316;5.994;2023-07-29T14:14:57;22.50;99.90
49224;DHT22;35050;51.316;5.994;2023-07-29T14:17:23;22.30;99.90
49224;DHT22;35050;51.316;5.994;2023-07-29T14:19:48;22.30;99.90
49224;DHT22;35050;51.316;5.994;2023-07-29T14:22:14;21.90;99.90
49224;DHT22;35050;51.316;5.994;2023-07-29T14:24:40;21.80;99.90
49224;DHT22;35050;51.316;5.994;2023-07-29T14:27:05;22.10;99.90
49224;DHT22;35050;51.316;5.994;2023-07-29T14:29:31;22.80;99.90
49224;DHT22;35050;51.316;5.994;2023-07-29T14:31:57;22.90;99.90
49224;DHT22;35050;51.316;5.994;2023-07-29T14:34:23;23.00;99.90
49224;DHT22;35050;51.316;5.994;2023-07-29T14:36:48;23.40;99.90
49224;DHT22;35050;51.316;5.994;2023-07-29T14:39:14;23.80;99.90
49224;DHT22;35050;51.316;5.994;2023-07-29T14:41:39;23.60;99.90
49224;DHT22;35050;51.316;5.994;2023-07-29T14:44:05;23.80;99.90
49224;DHT22;35050;51.316;5.994;2023-07-29T14:46:31;24.00;99.90
49224;DHT22;35050;51.316;5.994;2023-07-29T14:48:56;24.00;99.90
49224;DHT22;35050;51.316;5.994;2023-07-29T14:51:22;24.10;99.90
49224;DHT22;35050;51.316;5.994;2023-07-29T14:53:48;24.60;99.90
49224;DHT22;35050;51.316;5.994;2023-07-29T14:56:14;24.40;99.90
49224;DHT22;35050;51.316;5.994;2023-07-29T14:58:43;24.50;99.90
49224;DHT22;35050;51.316;5.994;2023-07-29T15:01:09;24.70;99.90
49224;DHT22;35050;51.316;5.994;2023-07-29T15:03:34;24.90;99.90
49224;DHT22;35050;51.316;5.994;2023-07-29T15:06:00;24.50;99.90
49224;DHT22;35050;51.316;5.994;2023-07-29T15:08:26;25.00;99.90
49224;DHT22;35050;51.316;5.994;2023-07-29T15:10:52;25.00;99.90
49224;DHT22;35050;51.316;5.994;2023-07-29T15:13:19;25.10;99.90
49224;DHT22;35050;51.316;5.994;2023-07-29T15:15:44;25.30;99.90
49224;DHT22;35050;51.316;5.994;2023-07-29T15:18:11;25.50;99.90
49224;DHT22;35050;51.316;5.994;2023-07-29T15:20:36;25.60;99.90
49224;DHT22;35050;51.316;5.994;2023-07-29T15:23:02;25.70;99.90
49224;DHT22;35050;51.316;5.994;2023-07-29T15:25:28;25.50;99.90
49224;DHT22;35050;51.316;5.994;2023-07-29T15:27:54;25.50;99.90
49224;DHT22;35050;51.316;5.994;2023-07-29T15:30:19;25.20;99.90
49224;DHT22;35050;51.316;5.994;2023-07-29T15:32:45;25.80;99.90
49224;DHT22;35050;51.316;5.994;2023-07-29T15:35:11;25.90;99.90